sensor_id;sensor_type;location;lat;lon;timestamp;pressure;altitude;pressure_sealevel;temperature;humidity
56414;BME280;42318;48.452;19.526;2024-01-15T00:00:47;96934.81;;;20.29;55.17
56414;BME280;42318;48.452;19.526;2024-01-15T00:04:08;96948.13;;;20.30;55.20
56414;BME280;42318;48.452;19.526;2024-01-15T00:07:09;96941.88;;;20.30;55.07
56414;BME280;42318;48.452;19.526;2024-01-15T00:10:10;96930.19;;;20.29;55.14
56414;BME280;42318;48.452;19.526;2024-01-15T00:13:10;96931.81;;;20.30;55.12
56414;BME280;42318;48.452;19.526;2024-01-15T00:16:11;96931.00;;;20.30;55.14
56414;BME280;42318;48.452;19.526;2024-01-15T00:19:12;96928.56;;;20.28;54.97
56414;BME280;42318;48.452;19.526;2024-01-15T00:22:13;96931.00;;;20.30;54.91
56414;BME280;42318;48.452;19.526;2024-01-15T00:25:14;96927.75;;;20.28;54.85
56414;BME280;42318;48.452;19.526;2024-01-15T00:28:14;96930.47;;;20.28;55.08
56414;BME280;42318;48.452;19.526;2024-01-15T00:31:16;96929.38;;;20.29;54.88
56414;BME280;42318;48.452;19.526;2024-01-15T00:34:17;96932.91;;;20.29;55.15
56414;BME280;42318;48.452;19.526;2024-01-15T00:37:18;96923.13;;;20.28;55.15
56414;BME280;42318;48.452;19.526;2024-01-15T00:40:18;96914.47;;;20.26;54.99
56414;BME280;42318;48.452;19.526;2024-01-15T00:43:19;96917.19;;;20.26;54.81
56414;BME280;42318;48.452;19.526;2024-01-15T00:46:20;96915.28;;;20.27;55.01
56414;BME280;42318;48.452;19.526;2024-01-15T00:49:20;96910.72;;;20.22;54.66
56414;BME280;42318;48.452;19.526;2024-01-15T00:52:21;96894.69;;;20.21;54.66
56414;BME280;42318;48.452;19.526;2024-01-15T00:55:22;96904.69;;;20.25;54.99
56414;BME280;42318;48.452;19.526;2024-01-15T00:58:22;96883.72;;;20.26;54.56
56414;BME280;42318;48.452;19.526;2024-01-15T01:01:23;96888.38;;;20.25;54.75
56414;BME280;42318;48.452;19.526;2024-01-15T01:04:23;96880.22;;;20.25;54.72
56414;BME280;42318;48.452;19.526;2024-01-15T01:07:24;96869.34;;;20.25;54.57
56414;BME280;42318;48.452;19.526;2024-01-15T01:10:24;96875.56;;;20.26;54.48
56414;BME280;42318;48.452;19.526;2024-01-15T01:13:25;96885.66;;;20.25;54.82
56414;BME280;42318;48.452;19.526;2024-01-15T01:16:26;96882.94;;;20.25;54.90
56414;BME280;42318;48.452;19.526;2024-01-15T01:19:26;96864.19;;;20.24;54.57
56414;BME280;42318;48.452;19.526;2024-01-15T01:22:27;96863.38;;;20.23;54.62
56414;BME280;42318;48.452;19.526;2024-01-15T01:25:28;96852.00;;;20.21;54.55
56414;BME280;42318;48.452;19.526;2024-01-15T01:28:28;96855.81;;;20.20;54.46
56414;BME280;42318;48.452;19.526;2024-01-15T01:31:29;96850.97;;;20.17;54.40
56414;BME280;42318;48.452;19.526;2024-01-15T01:34:29;96843.09;;;20.16;54.16
56414;BME280;42318;48.452;19.526;2024-01-15T01:37:30;96833.34;;;20.15;54.62
56414;BME280;42318;48.452;19.526;2024-01-15T01:40:31;96840.97;;;20.13;54.35
56414;BME280;42318;48.452;19.526;2024-01-15T01:43:32;96838.56;;;20.11;54.68
56414;BME280;42318;48.452;19.526;2024-01-15T01:46:33;96837.25;;;20.08;54.51
56414;BME280;42318;48.452;19.526;2024-01-15T01:49:34;96831.06;;;20.03;54.48
56414;BME280;42318;48.452;19.526;2024-01-15T01:52:36;96839.00;;;19.99;54.72
56414;BME280;42318;48.452;19.526;2024-01-15T01:55:38;96843.66;;;19.99;54.69
56414;BME280;42318;48.452;19.526;2024-01-15T01:58:38;96845.84;;;19.97;54.96
56414;BME280;42318;48.452;19.526;2024-01-15T02:01:40;96843.44;;;19.95;54.69
56414;BME280;42318;48.452;19.526;2024-01-15T02:04:41;96845.59;;;19.93;54.74
56414;BME280;42318;48.452;19.526;2024-01-15T02:07:42;96836.94;;;19.91;54.61
56414;BME280;42318;48.452;19.526;2024-01-15T02:10:44;96828.56;;;19.88;54.52
56414;BME280;42318;48.452;19.526;2024-01-15T02:13:44;96825.25;;;19.91;54.61
56414;BME280;42318;48.452;19.526;2024-01-15T02:16:45;96811.16;;;19.89;54.71
56414;BME280;42318;48.452;19.526;2024-01-15T02:19:46;96805.00;;;19.83;54.72
56414;BME280;42318;48.452;19.526;2024-01-15T02:22:46;96806.81;;;19.88;55.01
56414;BME280;42318;48.452;19.526;2024-01-15T02:25:47;96798.97;;;19.86;54.92
56414;BME280;42318;48.452;19.526;2024-01-15T02:28:48;96796.31;;;19.81;54.77
56414;BME280;42318;48.452;19.526;2024-01-15T02:31:49;96800.34;;;19.84;54.78
56414;BME280;42318;48.452;19.526;2024-01-15T02:34:49;96800.94;;;19.81;55.13
56414;BME280;42318;48.452;19.526;2024-01-15T02:37:50;96790.59;;;19.83;54.90
56414;BME280;42318;48.452;19.526;2024-01-15T02:40:50;96787.66;;;19.79;54.67
56414;BME280;42318;48.452;19.526;2024-01-15T02:43:52;96785.25;;;19.77;54.61
56414;BME280;42318;48.452;19.526;2024-01-15T02:46:52;96778.69;;;19.79;54.63
56414;BME280;42318;48.452;19.526;2024-01-15T02:49:54;96752.91;;;19.76;54.80
56414;BME280;42318;48.452;19.526;2024-01-15T02:52:55;96736.19;;;19.69;54.42
56414;BME280;42318;48.452;19.526;2024-01-15T02:55:55;96747.56;;;19.71;54.57
56414;BME280;42318;48.452;19.526;2024-01-15T02:58:56;96761.97;;;19.71;54.77
56414;BME280;42318;48.452;19.526;2024-01-15T03:01:57;96759.25;;;19.71;54.47
56414;BME280;42318;48.452;19.526;2024-01-15T03:04:57;96751.38;;;19.70;54.49
56414;BME280;42318;48.452;19.526;2024-01-15T03:07:58;96733.47;;;19.69;54.55
56414;BME280;42318;48.452;19.526;2024-01-15T03:10:58;96730.75;;;19.69;54.46
56414;BME280;42318;48.452;19.526;2024-01-15T03:13:59;96727.53;;;19.67;54.40
56414;BME280;42318;48.452;19.526;2024-01-15T03:17:00;96723.19;;;19.66;54.67
56414;BME280;42318;48.452;19.526;2024-01-15T03:20:01;96719.38;;;19.67;54.81
56414;BME280;42318;48.452;19.526;2024-01-15T03:23:03;96719.66;;;19.65;54.74
56414;BME280;42318;48.452;19.526;2024-01-15T03:26:04;96716.53;;;19.58;54.45
56414;BME280;42318;48.452;19.526;2024-01-15T03:29:04;96719.16;;;19.63;54.38
56414;BME280;42318;48.452;19.526;2024-01-15T03:32:05;96708.28;;;19.63;54.45
56414;BME280;42318;48.452;19.526;2024-01-15T03:35:06;96717.53;;;19.62;54.51
56414;BME280;42318;48.452;19.526;2024-01-15T03:38:07;96700.53;;;19.57;54.55
56414;BME280;42318;48.452;19.526;2024-01-15T03:41:08;96712.19;;;19.57;54.52
56414;BME280;42318;48.452;19.526;2024-01-15T03:44:08;96714.41;;;19.55;54.62
56414;BME280;42318;48.452;19.526;2024-01-15T03:47:09;96717.94;;;19.56;54.87
56414;BME280;42318;48.452;19.526;2024-01-15T03:50:10;96712.78;;;19.54;54.57
56414;BME280;42318;48.452;19.526;2024-01-15T03:53:10;96711.69;;;19.50;54.48
56414;BME280;42318;48.452;19.526;2024-01-15T03:56:11;96714.97;;;19.52;54.46
56414;BME280;42318;48.452;19.526;2024-01-15T03:59:12;96716.06;;;19.51;54.63
56414;BME280;42318;48.452;19.526;2024-01-15T04:02:12;96707.91;;;19.51;54.37
56414;BME280;42318;48.452;19.526;2024-01-15T04:05:13;96708.97;;;19.50;54.45
56414;BME280;42318;48.452;19.526;2024-01-15T04:08:14;96697.09;;;19.46;54.42
56414;BME280;42318;48.452;19.526;2024-01-15T04:11:14;96698.19;;;19.45;54.09
56414;BME280;42318;48.452;19.526;2024-01-15T04:14:15;96704.44;;;19.45;54.60
56414;BME280;42318;48.452;19.526;2024-01-15T04:17:15;96697.59;;;19.48;54.74
56414;BME280;42318;48.452;19.526;2024-01-15T04:20:17;96694.38;;;19.46;54.70
56414;BME280;42318;48.452;19.526;2024-01-15T04:23:17;96696.28;;;19.45;54.64
56414;BME280;42318;48.452;19.526;2024-01-15T04:26:18;96692.78;;;19.45;54.41
56414;BME280;42318;48.452;19.526;2024-01-15T04:29:18;96686.53;;;19.44;54.40
56414;BME280;42318;48.452;19.526;2024-01-15T04:32:19;96679.69;;;19.47;54.37
56414;BME280;42318;48.452;19.526;2024-01-15T04:35:19;96658.56;;;19.44;54.69
56414;BME280;42318;48.452;19.526;2024-01-15T04:38:20;96649.59;;;19.43;54.54
56414;BME280;42318;48.452;19.526;2024-01-15T04:41:21;96652.09;;;19.40;54.44
56414;BME280;42318;48.452;19.526;2024-01-15T04:44:22;96673.84;;;19.40;54.48
56414;BME280;42318;48.452;19.526;2024-01-15T04:47:22;96669.81;;;19.37;54.24
56414;BME280;42318;48.452;19.526;2024-01-15T04:50:23;96667.91;;;19.38;54.00
56414;BME280;42318;48.452;19.526;2024-01-15T04:53:24;96669.00;;;19.37;54.59
56414;BME280;42318;48.452;19.526;2024-01-15T04:56:24;96664.66;;;19.36;54.48
56414;BME280;42318;48.452;19.526;2024-01-15T04:59:25;96658.13;;;19.37;54.37
56414;BME280;42318;48.452;19.526;2024-01-15T05:02:25;96659.53;;;19.34;54.38
56414;BME280;42318;48.452;19.526;2024-01-15T05:05:26;96638.19;;;19.28;54.22
56414;BME280;42318;48.452;19.526;2024-01-15T05:08:27;96638.09;;;19.33;54.19
56414;BME280;42318;48.452;19.526;2024-01-15T05:11:27;96640.81;;;19.33;54.49
56414;BME280;42318;48.452;19.526;2024-01-15T05:14:28;96649.25;;;19.31;54.99
56414;BME280;42318;48.452;19.526;2024-01-15T05:17:28;96636.34;;;19.23;54.64
56414;BME280;42318;48.452;19.526;2024-01-15T05:20:29;96638.69;;;19.30;54.54
56414;BME280;42318;48.452;19.526;2024-01-15T05:23:31;96650.66;;;19.29;54.31
56414;BME280;42318;48.452;19.526;2024-01-15T05:26:32;96653.38;;;19.29;54.69
56414;BME280;42318;48.452;19.526;2024-01-15T05:29:32;96646.84;;;19.30;54.60
56414;BME280;42318;48.452;19.526;2024-01-15T05:32:33;96647.13;;;19.28;54.29
56414;BME280;42318;48.452;19.526;2024-01-15T05:35:34;96643.63;;;19.28;54.27
56414;BME280;42318;48.452;19.526;2024-01-15T05:38:35;96640.38;;;19.26;54.12
56414;BME280;42318;48.452;19.526;2024-01-15T05:41:35;96614.94;;;19.22;54.36
56414;BME280;42318;48.452;19.526;2024-01-15T05:44:36;96620.28;;;19.27;54.67
56414;BME280;42318;48.452;19.526;2024-01-15T05:47:36;96627.91;;;19.25;54.36
56414;BME280;42318;48.452;19.526;2024-01-15T05:50:37;96639.59;;;19.25;54.24
56414;BME280;42318;48.452;19.526;2024-01-15T05:53:38;96624.38;;;19.24;54.50
56414;BME280;42318;48.452;19.526;2024-01-15T05:56:40;96619.25;;;19.23;54.23
56414;BME280;42318;48.452;19.526;2024-01-15T05:59:42;96604.66;;;19.19;54.28
56414;BME280;42318;48.452;19.526;2024-01-15T06:02:43;96616.03;;;19.21;54.23
56414;BME280;42318;48.452;19.526;2024-01-15T06:05:44;96605.75;;;19.18;54.31
56414;BME280;42318;48.452;19.526;2024-01-15T06:08:44;96606.78;;;19.22;54.46
56414;BME280;42318;48.452;19.526;2024-01-15T06:11:45;96593.50;;;19.20;54.36
56414;BME280;42318;48.452;19.526;2024-01-15T06:14:46;96581.34;;;19.18;54.19
56414;BME280;42318;48.452;19.526;2024-01-15T06:17:46;96592.69;;;19.20;54.46
56414;BME280;42318;48.452;19.526;2024-01-15T06:20:47;96594.59;;;19.19;54.28
56414;BME280;42318;48.452;19.526;2024-01-15T06:23:47;96597.31;;;19.19;54.22
56414;BME280;42318;48.452;19.526;2024-01-15T06:26:48;96583.84;;;19.14;54.07
56414;BME280;42318;48.452;19.526;2024-01-15T06:29:49;96596.00;;;19.17;54.12
56414;BME280;42318;48.452;19.526;2024-01-15T06:32:49;96603.94;;;19.13;54.31
56414;BME280;42318;48.452;19.526;2024-01-15T06:35:50;96595.78;;;19.13;54.33
56414;BME280;42318;48.452;19.526;2024-01-15T06:38:51;96601.22;;;19.13;54.04
56414;BME280;42318;48.452;19.526;2024-01-15T06:41:51;96593.38;;;19.11;54.16
56414;BME280;42318;48.452;19.526;2024-01-15T06:44:52;96599.41;;;19.08;54.16
56414;BME280;42318;48.452;19.526;2024-01-15T06:47:53;96601.31;;;19.08;54.27
56414;BME280;42318;48.452;19.526;2024-01-15T06:50:53;96595.13;;;19.02;54.24
56414;BME280;42318;48.452;19.526;2024-01-15T06:53:54;96606.47;;;19.04;54.05
56414;BME280;42318;48.452;19.526;2024-01-15T06:56:55;96603.78;;;19.04;54.25
56414;BME280;42318;48.452;19.526;2024-01-15T06:59:55;96613.00;;;19.03;54.05
56414;BME280;42318;48.452;19.526;2024-01-15T07:02:56;96611.91;;;19.04;54.06
56414;BME280;42318;48.452;19.526;2024-01-15T07:05:57;96607.28;;;19.05;54.08
56414;BME280;42318;48.452;19.526;2024-01-15T07:08:58;96611.91;;;19.04;54.19
56414;BME280;42318;48.452;19.526;2024-01-15T07:11:58;96600.25;;;19.04;54.15
56414;BME280;42318;48.452;19.526;2024-01-15T07:15:00;96608.09;;;19.05;54.08
56414;BME280;42318;48.452;19.526;2024-01-15T07:18:00;96609.16;;;19.09;54.04
56414;BME280;42318;48.452;19.526;2024-01-15T07:21:01;96594.00;;;19.03;54.07
56414;BME280;42318;48.452;19.526;2024-01-15T07:24:03;96596.91;;;19.12;54.01
56414;BME280;42318;48.452;19.526;2024-01-15T07:27:04;96599.31;;;19.13;53.63
56414;BME280;42318;48.452;19.526;2024-01-15T07:30:05;96607.16;;;19.15;53.48
56414;BME280;42318;48.452;19.526;2024-01-15T07:33:07;96606.28;;;19.20;53.41
56414;BME280;42318;48.452;19.526;2024-01-15T07:36:07;96607.88;;;19.21;53.35
56414;BME280;42318;48.452;19.526;2024-01-15T07:39:08;96615.44;;;19.24;53.53
56414;BME280;42318;48.452;19.526;2024-01-15T07:42:09;96603.56;;;19.20;53.49
56414;BME280;42318;48.452;19.526;2024-01-15T07:45:10;96605.69;;;19.23;53.32
56414;BME280;42318;48.452;19.526;2024-01-15T07:48:11;96604.06;;;19.22;53.62
56414;BME280;42318;48.452;19.526;2024-01-15T07:51:12;96618.44;;;19.22;53.12
56414;BME280;42318;48.452;19.526;2024-01-15T07:54:12;96615.72;;;19.22;53.64
56414;BME280;42318;48.452;19.526;2024-01-15T07:57:13;96616.84;;;19.21;53.48
56414;BME280;42318;48.452;19.526;2024-01-15T08:00:14;96636.13;;;19.20;53.23
56414;BME280;42318;48.452;19.526;2024-01-15T08:03:15;96619.03;;;19.19;53.40
56414;BME280;42318;48.452;19.526;2024-01-15T08:06:16;96622.47;;;19.25;53.29
56414;BME280;42318;48.452;19.526;2024-01-15T08:09:17;96630.84;;;19.28;53.09
56414;BME280;42318;48.452;19.526;2024-01-15T08:12:17;96632.97;;;19.31;52.89
56414;BME280;42318;48.452;19.526;2024-01-15T08:15:18;96640.66;;;19.43;52.69
56414;BME280;42318;48.452;19.526;2024-01-15T08:18:19;96642.78;;;19.46;52.91
56414;BME280;42318;48.452;19.526;2024-01-15T08:21:21;96644.09;;;19.49;52.61
56414;BME280;42318;48.452;19.526;2024-01-15T08:24:21;96634.81;;;19.55;52.22
56414;BME280;42318;48.452;19.526;2024-01-15T08:27:22;96654.69;;;19.69;52.28
56414;BME280;42318;48.452;19.526;2024-01-15T08:30:23;96655.59;;;19.78;52.60
56414;BME280;42318;48.452;19.526;2024-01-15T08:33:28;96668.81;;;19.85;52.51
56414;BME280;42318;48.452;19.526;2024-01-15T08:36:29;96651.28;;;19.91;52.40
56414;BME280;42318;48.452;19.526;2024-01-15T08:39:31;96649.78;;;19.85;52.78
56414;BME280;42318;48.452;19.526;2024-01-15T08:42:32;96660.06;;;19.88;52.93
56414;BME280;42318;48.452;19.526;2024-01-15T08:45:32;96664.47;;;19.84;53.01
56414;BME280;42318;48.452;19.526;2024-01-15T08:48:33;96677.56;;;19.82;52.96
56414;BME280;42318;48.452;19.526;2024-01-15T08:51:34;96677.94;;;19.75;53.04
56414;BME280;42318;48.452;19.526;2024-01-15T08:54:35;96679.63;;;19.71;53.32
56414;BME280;42318;48.452;19.526;2024-01-15T08:57:36;96674.59;;;19.64;53.39
56414;BME280;42318;48.452;19.526;2024-01-15T09:00:36;96674.38;;;19.61;53.54
56414;BME280;42318;48.452;19.526;2024-01-15T09:03:37;96668.94;;;19.61;53.79
56414;BME280;42318;48.452;19.526;2024-01-15T09:06:37;96669.53;;;19.58;53.50
56414;BME280;42318;48.452;19.526;2024-01-15T09:09:38;96684.66;;;19.64;53.77
56414;BME280;42318;48.452;19.526;2024-01-15T09:12:39;96674.59;;;19.64;53.55
56414;BME280;42318;48.452;19.526;2024-01-15T09:15:39;96672.69;;;19.65;54.18
56414;BME280;42318;48.452;19.526;2024-01-15T09:18:40;96678.41;;;19.63;53.63
56414;BME280;42318;48.452;19.526;2024-01-15T09:21:41;96681.41;;;19.62;53.79
56414;BME280;42318;48.452;19.526;2024-01-15T09:24:41;96670.34;;;19.58;53.96
56414;BME280;42318;48.452;19.526;2024-01-15T09:27:42;96669.75;;;19.61;53.72
56414;BME280;42318;48.452;19.526;2024-01-15T09:30:43;96669.44;;;19.63;54.11
56414;BME280;42318;48.452;19.526;2024-01-15T09:33:45;96661.81;;;19.65;53.97
56414;BME280;42318;48.452;19.526;2024-01-15T09:36:46;96645.22;;;19.66;53.60
56414;BME280;42318;48.452;19.526;2024-01-15T09:39:48;96641.38;;;19.67;53.85
56414;BME280;42318;48.452;19.526;2024-01-15T09:42:50;96631.31;;;19.68;53.77
56414;BME280;42318;48.452;19.526;2024-01-15T09:45:53;96640.78;;;19.70;53.93
56414;BME280;42318;48.452;19.526;2024-01-15T09:48:54;96628.22;;;19.74;53.91
56414;BME280;42318;48.452;19.526;2024-01-15T09:51:55;96622.78;;;19.74;53.82
56414;BME280;42318;48.452;19.526;2024-01-15T09:54:58;96626.00;;;19.76;54.13
56414;BME280;42318;48.452;19.526;2024-01-15T09:58:02;96617.84;;;19.76;53.84
56414;BME280;42318;48.452;19.526;2024-01-15T10:01:03;96614.84;;;19.78;53.79
56414;BME280;42318;48.452;19.526;2024-01-15T10:04:04;96613.22;;;19.77;53.91
56414;BME280;42318;48.452;19.526;2024-01-15T10:07:05;96608.91;;;19.76;54.00
56414;BME280;42318;48.452;19.526;2024-01-15T10:10:07;96607.28;;;19.75;54.02
56414;BME280;42318;48.452;19.526;2024-01-15T10:13:08;96619.47;;;19.77;54.17
56414;BME280;42318;48.452;19.526;2024-01-15T10:16:08;96607.28;;;19.75;53.86
56414;BME280;42318;48.452;19.526;2024-01-15T10:19:09;96611.31;;;19.77;53.98
56414;BME280;42318;48.452;19.526;2024-01-15T10:22:10;96609.41;;;19.78;54.21
56414;BME280;42318;48.452;19.526;2024-01-15T10:25:11;96599.94;;;19.75;53.93
56414;BME280;42318;48.452;19.526;2024-01-15T10:28:13;96603.66;;;19.80;54.35
56414;BME280;42318;48.452;19.526;2024-01-15T10:31:14;96599.84;;;19.81;54.30
56414;BME280;42318;48.452;19.526;2024-01-15T10:34:15;96588.88;;;19.86;54.62
56414;BME280;42318;48.452;19.526;2024-01-15T10:37:16;96574.69;;;19.89;55.28
56414;BME280;42318;48.452;19.526;2024-01-15T10:40:18;96581.44;;;19.91;54.94
56414;BME280;42318;48.452;19.526;2024-01-15T10:43:19;96573.78;;;19.93;55.53
56414;BME280;42318;48.452;19.526;2024-01-15T10:46:20;96570.78;;;19.95;55.42
56414;BME280;42318;48.452;19.526;2024-01-15T10:49:21;96559.09;;;19.94;55.61
56414;BME280;42318;48.452;19.526;2024-01-15T10:52:22;96563.44;;;19.95;55.36
56414;BME280;42318;48.452;19.526;2024-01-15T10:55:23;96548.00;;;19.91;55.27
56414;BME280;42318;48.452;19.526;2024-01-15T10:58:29;96556.59;;;19.98;55.63
56414;BME280;42318;48.452;19.526;2024-01-15T11:01:31;96566.38;;;19.99;55.71
56414;BME280;42318;48.452;19.526;2024-01-15T11:04:32;96549.56;;;19.97;55.72
56414;BME280;42318;48.452;19.526;2024-01-15T11:07:33;96557.41;;;19.98;55.75
56414;BME280;42318;48.452;19.526;2024-01-15T11:10:47;96547.53;;;20.02;55.84
56414;BME280;42318;48.452;19.526;2024-01-15T11:13:50;96550.25;;;20.02;55.80
56414;BME280;42318;48.452;19.526;2024-01-15T11:16:57;96554.59;;;20.03;55.64
56414;BME280;42318;48.452;19.526;2024-01-15T11:19:59;96533.66;;;20.04;55.97
56414;BME280;42318;48.452;19.526;2024-01-15T11:23:00;96537.16;;;20.04;55.56
56414;BME280;42318;48.452;19.526;2024-01-15T11:26:00;96537.66;;;20.06;56.12
56414;BME280;42318;48.452;19.526;2024-01-15T11:29:08;96536.25;;;20.09;55.80
56414;BME280;42318;48.452;19.526;2024-01-15T11:32:09;96537.88;;;20.10;55.88
56414;BME280;42318;48.452;19.526;2024-01-15T11:35:11;96546.53;;;20.12;55.83
56414;BME280;42318;48.452;19.526;2024-01-15T11:38:11;96535.66;;;20.12;56.14
56414;BME280;42318;48.452;19.526;2024-01-15T11:41:25;96531.72;;;20.18;55.98
56414;BME280;42318;48.452;19.526;2024-01-15T11:44:26;96535.75;;;20.21;55.81
56414;BME280;42318;48.452;19.526;2024-01-15T11:50:48;96531.31;;;20.25;56.09
56414;BME280;42318;48.452;19.526;2024-01-15T11:53:53;96530.19;;;20.26;55.89
56414;BME280;42318;48.452;19.526;2024-01-15T11:56:57;96516.28;;;20.27;56.01
56414;BME280;42318;48.452;19.526;2024-01-15T12:00:03;96515.69;;;20.30;55.78
56414;BME280;42318;48.452;19.526;2024-01-15T12:03:04;96514.56;;;20.31;56.11
56414;BME280;42318;48.452;19.526;2024-01-15T12:06:06;96516.69;;;20.34;55.96
56414;BME280;42318;48.452;19.526;2024-01-15T12:09:08;96515.56;;;20.35;56.06
56414;BME280;42318;48.452;19.526;2024-01-15T12:12:13;96524.53;;;20.36;56.15
56414;BME280;42318;48.452;19.526;2024-01-15T12:15:18;96526.66;;;20.39;56.13
56414;BME280;42318;48.452;19.526;2024-01-15T12:18:19;96527.50;;;20.40;56.28
56414;BME280;42318;48.452;19.526;2024-01-15T12:21:20;96529.63;;;20.43;55.95
56414;BME280;42318;48.452;19.526;2024-01-15T12:24:21;96510.56;;;20.43;56.10
56414;BME280;42318;48.452;19.526;2024-01-15T12:27:21;96496.22;;;20.37;56.09
56414;BME280;42318;48.452;19.526;2024-01-15T12:30:22;96505.63;;;20.45;56.28
56414;BME280;42318;48.452;19.526;2024-01-15T12:33:23;96497.16;;;20.46;56.12
56414;BME280;42318;48.452;19.526;2024-01-15T12:36:23;96497.97;;;20.47;56.21
56414;BME280;42318;48.452;19.526;2024-01-15T12:39:24;96503.09;;;20.48;56.04
56414;BME280;42318;48.452;19.526;2024-01-15T12:42:25;96498.13;;;20.36;56.10
56414;BME280;42318;48.452;19.526;2024-01-15T12:45:26;96511.56;;;20.47;55.86
56414;BME280;42318;48.452;19.526;2024-01-15T12:48:27;96515.91;;;20.48;56.40
56414;BME280;42318;48.452;19.526;2024-01-15T12:51:28;96518.94;;;20.46;56.05
56414;BME280;42318;48.452;19.526;2024-01-15T12:54:29;96510.28;;;20.44;56.38
56414;BME280;42318;48.452;19.526;2024-01-15T12:57:29;96502.59;;;20.46;56.36
56414;BME280;42318;48.452;19.526;2024-01-15T13:00:30;96489.81;;;20.47;56.48
56414;BME280;42318;48.452;19.526;2024-01-15T13:03:30;96486.59;;;20.45;56.73
56414;BME280;42318;48.452;19.526;2024-01-15T13:06:31;96479.72;;;20.47;56.78
56414;BME280;42318;48.452;19.526;2024-01-15T13:09:32;96461.81;;;20.46;56.63
56414;BME280;42318;48.452;19.526;2024-01-15T13:12:34;96448.19;;;20.46;56.42
56414;BME280;42318;48.452;19.526;2024-01-15T13:15:35;96460.69;;;20.47;56.87
56414;BME280;42318;48.452;19.526;2024-01-15T13:18:36;96464.53;;;20.46;56.68
56414;BME280;42318;48.452;19.526;2024-01-15T13:21:37;96457.97;;;20.47;56.79
56414;BME280;42318;48.452;19.526;2024-01-15T13:24:38;96463.72;;;20.46;56.88
56414;BME280;42318;48.452;19.526;2024-01-15T13:27:39;96456.66;;;20.45;56.67
56414;BME280;42318;48.452;19.526;2024-01-15T13:30:40;96461.00;;;20.46;56.97
56414;BME280;42318;48.452;19.526;2024-01-15T13:33:40;96449.13;;;20.42;57.13
56414;BME280;42318;48.452;19.526;2024-01-15T13:36:41;96432.00;;;20.41;57.18
56414;BME280;42318;48.452;19.526;2024-01-15T13:39:41;96426.94;;;20.34;57.31
56414;BME280;42318;48.452;19.526;2024-01-15T13:42:42;96443.06;;;20.45;57.26
56414;BME280;42318;48.452;19.526;2024-01-15T13:45:43;96446.09;;;20.43;57.40
56414;BME280;42318;48.452;19.526;2024-01-15T13:48:44;96451.53;;;20.43;57.25
56414;BME280;42318;48.452;19.526;2024-01-15T13:51:44;96454.56;;;20.42;57.53
56414;BME280;42318;48.452;19.526;2024-01-15T13:54:45;96459.38;;;20.45;57.44
56414;BME280;42318;48.452;19.526;2024-01-15T13:57:45;96457.78;;;20.44;57.52
56414;BME280;42318;48.452;19.526;2024-01-15T14:00:46;96458.59;;;20.44;57.54
56414;BME280;42318;48.452;19.526;2024-01-15T14:03:47;96462.41;;;20.43;57.74
56414;BME280;42318;48.452;19.526;2024-01-15T14:06:48;96461.00;;;20.46;58.25
56414;BME280;42318;48.452;19.526;2024-01-15T14:09:48;96461.50;;;20.48;59.22
56414;BME280;42318;48.452;19.526;2024-01-15T14:12:49;96463.41;;;20.47;59.00
56414;BME280;42318;48.452;19.526;2024-01-15T14:15:49;96473.69;;;20.50;58.81
56414;BME280;42318;48.452;19.526;2024-01-15T14:18:50;96486.47;;;20.50;59.52
56414;BME280;42318;48.452;19.526;2024-01-15T14:21:51;96481.03;;;20.50;59.78
56414;BME280;42318;48.452;19.526;2024-01-15T14:24:52;96489.50;;;20.48;59.83
56414;BME280;42318;48.452;19.526;2024-01-15T14:27:52;96502.78;;;20.50;59.24
56414;BME280;42318;48.452;19.526;2024-01-15T14:30:53;96502.78;;;20.50;58.89
56414;BME280;42318;48.452;19.526;2024-01-15T14:33:56;96491.53;;;20.43;58.87
56414;BME280;42318;48.452;19.526;2024-01-15T14:36:56;96503.91;;;20.49;58.73
56414;BME280;42318;48.452;19.526;2024-01-15T14:39:57;96490.91;;;20.46;58.91
56414;BME280;42318;48.452;19.526;2024-01-15T14:42:58;96488.69;;;20.48;59.15
56414;BME280;42318;48.452;19.526;2024-01-15T14:45:59;96497.66;;;20.48;58.85
56414;BME280;42318;48.452;19.526;2024-01-15T14:49:00;96496.38;;;20.46;58.70
56414;BME280;42318;48.452;19.526;2024-01-15T14:52:00;96493.63;;;20.46;58.33
56414;BME280;42318;48.452;19.526;2024-01-15T14:55:02;96493.63;;;20.46;58.35
56414;BME280;42318;48.452;19.526;2024-01-15T14:58:02;96504.53;;;20.46;58.16
56414;BME280;42318;48.452;19.526;2024-01-15T15:01:03;96503.72;;;20.45;58.55
56414;BME280;42318;48.452;19.526;2024-01-15T15:04:04;96514.59;;;20.45;58.48
56414;BME280;42318;48.452;19.526;2024-01-15T15:07:05;96517.31;;;20.45;58.24
56414;BME280;42318;48.452;19.526;2024-01-15T15:10:07;96519.22;;;20.45;57.99
56414;BME280;42318;48.452;19.526;2024-01-15T15:13:08;96520.66;;;20.42;58.24
56414;BME280;42318;48.452;19.526;2024-01-15T15:16:08;96524.19;;;20.43;58.04
56414;BME280;42318;48.452;19.526;2024-01-15T15:19:09;96531.53;;;20.42;57.66
56414;BME280;42318;48.452;19.526;2024-01-15T15:22:10;96529.91;;;20.41;57.68
56414;BME280;42318;48.452;19.526;2024-01-15T15:25:10;96529.13;;;20.41;57.70
56414;BME280;42318;48.452;19.526;2024-01-15T15:28:12;96520.44;;;20.38;57.66
56414;BME280;42318;48.452;19.526;2024-01-15T15:31:15;96504.91;;;20.39;57.59
56414;BME280;42318;48.452;19.526;2024-01-15T15:34:15;96497.59;;;20.40;57.42
56414;BME280;42318;48.452;19.526;2024-01-15T15:37:16;96492.41;;;20.38;57.72
56414;BME280;42318;48.452;19.526;2024-01-15T15:40:17;96490.50;;;20.38;57.70
56414;BME280;42318;48.452;19.526;2024-01-15T15:43:18;96485.06;;;20.38;57.59
56414;BME280;42318;48.452;19.526;2024-01-15T15:46:18;96484.00;;;20.40;57.50
56414;BME280;42318;48.452;19.526;2024-01-15T15:49:19;96488.31;;;20.41;57.52